createdAt,value
2019-04-14T00:00:40.447Z,69.30
2019-04-14T00:03:21.387Z,65.73
2019-04-14T00:05:53.861Z,69.40
2019-04-14T00:08:24.088Z,70.33
2019-04-14T00:10:53.528Z,61.33
2019-04-14T00:13:23.835Z,65.13
2019-04-14T00:15:54.923Z,68.33
2019-04-14T00:18:25.496Z,70.00
2019-04-14T00:20:55.544Z,66.40
2019-04-14T00:23:26.066Z,68.43
2019-04-14T00:25:57.004Z,79.93
2019-04-14T00:28:27.119Z,73.30
2019-04-14T00:30:56.633Z,73.20
2019-04-14T00:33:28.852Z,75.83
2019-04-14T00:36:02.324Z,65.03
2019-04-14T00:38:34.471Z,70.30
2019-04-14T00:41:05.605Z,67.37
2019-04-14T00:43:37.423Z,70.80
2019-04-14T00:46:08.453Z,74.20
2019-04-14T00:48:38.728Z,69.40
2019-04-14T00:51:09.153Z,69.53
2019-04-14T00:53:38.599Z,74.90
2019-04-14T00:56:08.381Z,73.07
2019-04-14T00:58:38.937Z,65.67
2019-04-14T01:01:09.056Z,66.70
2019-04-14T01:03:39.442Z,69.83
2019-04-14T01:06:09.739Z,73.13
2019-04-14T01:08:40.214Z,73.63
2019-04-14T01:11:09.680Z,65.20
2019-04-14T01:13:39.735Z,73.63
2019-04-14T01:16:15.542Z,74.03
2019-04-14T01:18:40.770Z,70.70
2019-04-14T01:21:11.043Z,73.63
2019-04-14T01:23:41.238Z,70.47
2019-04-14T01:26:11.672Z,75.03
2019-04-14T01:28:41.887Z,76.07
2019-04-14T01:31:11.994Z,73.40
2019-04-14T01:33:42.301Z,75.70
2019-04-14T01:36:12.654Z,68.83
2019-04-14T01:38:42.824Z,74.37
2019-04-14T01:41:12.873Z,76.50
2019-04-14T01:43:42.805Z,80.03
2019-04-14T01:46:19.670Z,75.80
2019-04-14T01:48:43.212Z,72.87
2019-04-14T01:51:17.789Z,72.27
2019-04-14T01:53:58.015Z,78.07
2019-04-14T01:56:40.805Z,80.13
2019-04-14T01:59:12.782Z,75.30
2019-04-14T02:01:47.631Z,77.50
2019-04-14T02:04:18.136Z,79.07
2019-04-14T02:06:48.387Z,82.10
2019-04-14T02:09:18.649Z,77.50
2019-04-14T02:11:48.806Z,78.93
2019-04-14T02:14:19.070Z,80.20
2019-04-14T02:16:53.585Z,80.33
2019-04-14T02:19:19.883Z,84.40
2019-04-14T02:21:49.932Z,81.57
2019-04-14T02:24:20.014Z,80.60
2019-04-14T02:26:50.272Z,83.70
2019-04-14T02:29:21.194Z,81.77
2019-04-14T02:32:17.333Z,78.47
2019-04-14T02:34:49.495Z,71.30
2019-04-14T02:37:24.342Z,75.87
2019-04-14T02:39:53.608Z,76.80
2019-04-14T02:44:55.802Z,76.60
2019-04-14T02:50:14.206Z,85.80
2019-04-14T02:52:29.945Z,79.83
2019-04-14T02:57:39.990Z,81.57
2019-04-14T02:59:58.517Z,78.97
2019-04-14T03:02:29.616Z,76.47
2019-04-14T03:04:57.025Z,82.90
2019-04-14T03:07:34.083Z,80.90
2019-04-14T03:09:52.490Z,87.30
2019-04-14T03:12:36.238Z,88.17
2019-04-14T03:15:03.629Z,80.47
2019-04-14T03:17:58.560Z,82.80
2019-04-14T03:20:27.834Z,71.40
2019-04-14T03:25:34.239Z,76.23
2019-04-14T03:28:28.004Z,84.60
2019-04-14T03:33:55.614Z,81.23
2019-04-14T03:36:58.466Z,81.63
2019-04-14T03:38:49.779Z,79.30
2019-04-14T03:41:17.100Z,78.80
2019-04-14T03:43:39.277Z,84.43
2019-04-14T03:46:17.806Z,85.63
2019-04-14T03:51:18.880Z,77.27
2019-04-14T03:53:43.978Z,76.83
2019-04-14T03:56:00.648Z,85.33
2019-04-14T03:58:27.146Z,77.60
2019-04-14T04:00:57.523Z,81.57
2019-04-14T04:03:27.964Z,82.27
2019-04-14T04:05:58.538Z,82.87
2019-04-14T04:08:29.021Z,80.97
2019-04-14T04:11:00.420Z,78.43
2019-04-14T04:13:30.228Z,83.13
2019-04-14T04:16:13.804Z,86.10
2019-04-14T04:18:54.568Z,78.27
2019-04-14T04:21:20.655Z,76.67
2019-04-14T04:24:02.065Z,83.93
2019-04-14T04:26:36.609Z,79.57
2019-04-14T04:29:11.188Z,84.50
2019-04-14T04:31:48.339Z,86.47
2019-04-14T04:34:25.301Z,81.70
2019-04-14T04:36:57.401Z,79.07
2019-04-14T04:39:36.414Z,83.77
2019-04-14T04:42:05.278Z,82.03
2019-04-14T04:44:35.555Z,77.87
2019-04-14T04:47:05.719Z,82.60
2019-04-14T04:49:36.170Z,87.70
2019-04-14T04:52:06.312Z,83.43
2019-04-14T04:54:36.420Z,87.33
2019-04-14T04:57:06.767Z,87.03
2019-04-14T04:59:36.720Z,82.07
2019-04-14T05:02:07.011Z,89.00
2019-04-14T05:04:37.283Z,86.73
2019-04-14T05:07:07.804Z,86.80
2019-04-14T05:09:39.151Z,79.47
2019-04-14T05:12:19.597Z,80.00
2019-04-14T05:14:56.708Z,79.70
2019-04-14T05:17:29.788Z,78.87
2019-04-14T05:19:59.180Z,83.57
2019-04-14T05:22:28.918Z,89.50
2019-04-14T05:24:59.212Z,91.57
2019-04-14T05:27:29.755Z,84.67
2019-04-14T05:30:00.412Z,95.70
2019-04-14T05:32:30.535Z,85.10
2019-04-14T05:35:00.870Z,86.87
2019-04-14T05:37:31.296Z,89.10
2019-04-14T05:40:01.634Z,81.13
2019-04-14T05:42:32.221Z,83.43
2019-04-14T05:45:02.509Z,87.73
2019-04-14T05:47:32.590Z,87.83
2019-04-14T05:50:03.105Z,87.83
2019-04-14T05:52:32.549Z,83.93
2019-04-14T05:55:02.470Z,83.03
2019-04-14T05:57:32.693Z,84.97
2019-04-14T06:00:02.110Z,83.03
2019-04-14T06:02:33.578Z,88.10
2019-04-14T06:05:03.704Z,80.50
2019-04-14T06:07:34.149Z,91.40
2019-04-14T06:10:04.865Z,84.13
2019-04-14T06:12:34.135Z,87.30
2019-04-14T06:15:04.170Z,87.17
2019-04-14T06:17:33.509Z,80.17
2019-04-14T06:20:02.791Z,82.97
2019-04-14T06:22:32.072Z,77.57
2019-04-14T06:25:01.374Z,77.70
2019-04-14T06:27:30.636Z,75.67
2019-04-14T06:30:01.553Z,85.73
2019-04-14T06:32:35.403Z,79.30
2019-04-14T06:35:12.620Z,73.83
2019-04-14T06:38:00.137Z,67.07
2019-04-14T06:40:34.244Z,65.97
2019-04-14T06:43:03.532Z,65.40
2019-04-14T06:45:32.819Z,69.53
2019-04-14T06:48:02.092Z,67.03
2019-04-14T06:50:31.372Z,66.90
2019-04-14T06:53:00.657Z,66.27
2019-04-14T06:55:29.961Z,62.70
2019-04-14T06:57:59.216Z,63.53
2019-04-14T07:00:28.502Z,57.83
2019-04-14T07:02:57.813Z,57.13
2019-04-14T07:05:28.366Z,62.17
2019-04-14T07:07:57.746Z,53.73
2019-04-14T07:10:27.114Z,57.00
2019-04-14T07:12:56.589Z,53.40
2019-04-14T07:15:25.893Z,53.40
2019-04-14T07:17:55.174Z,52.90
2019-04-14T07:20:24.452Z,53.37
2019-04-14T07:22:53.717Z,48.67
2019-04-14T07:25:22.993Z,51.53
2019-04-14T07:27:52.273Z,49.23
2019-04-14T07:30:41.248Z,52.80
2019-04-14T07:33:12.173Z,49.63
2019-04-14T07:35:49.281Z,48.53
2019-04-14T07:38:24.308Z,46.57
2019-04-14T07:40:55.239Z,49.57
2019-04-14T07:43:28.847Z,52.23
2019-04-14T07:45:59.751Z,48.10
2019-04-14T07:48:39.553Z,45.00
2019-04-14T07:51:10.494Z,42.87
2019-04-14T07:53:59.572Z,47.40
2019-04-14T07:56:46.497Z,46.03
2019-04-14T07:59:17.403Z,41.33
2019-04-14T08:01:51.136Z,46.53
2019-04-14T08:04:22.048Z,45.07
2019-04-14T08:06:53.297Z,42.83
2019-04-14T08:09:22.563Z,42.67
2019-04-14T08:11:51.832Z,44.77
2019-04-14T08:14:21.113Z,37.53
2019-04-14T08:16:50.384Z,43.47
2019-04-14T08:19:19.662Z,41.50
2019-04-14T08:21:48.924Z,43.17
2019-04-14T08:24:18.208Z,42.53
2019-04-14T08:26:47.472Z,43.00
2019-04-14T08:29:16.781Z,41.00
2019-04-14T08:31:46.041Z,40.53
2019-04-14T08:34:15.327Z,43.50
2019-04-14T08:36:44.601Z,41.27
2019-04-14T08:39:13.896Z,43.30
2019-04-14T08:41:47.756Z,44.07
2019-04-14T08:44:24.676Z,38.87
2019-04-14T08:46:58.528Z,38.77
2019-04-14T08:49:41.245Z,41.67
2019-04-14T08:52:24.262Z,43.00
2019-04-14T08:55:01.529Z,38.63
2019-04-14T08:57:32.458Z,42.53
2019-04-14T09:00:18.740Z,39.53
2019-04-14T09:03:05.830Z,37.23
2019-04-14T09:05:53.303Z,40.90
2019-04-14T09:08:36.232Z,42.27
2019-04-14T09:11:12.663Z,38.97
2019-04-14T09:13:41.942Z,42.80
2019-04-14T09:16:11.211Z,40.93
2019-04-14T09:18:40.498Z,37.03
2019-04-14T09:21:09.789Z,38.93
2019-04-14T09:23:39.114Z,34.87
2019-04-14T09:26:08.409Z,37.57
2019-04-14T09:28:37.672Z,36.77
2019-04-14T09:31:06.952Z,37.60
2019-04-14T09:33:36.224Z,32.67
2019-04-14T09:36:05.501Z,35.27
2019-04-14T09:38:34.786Z,32.30
2019-04-14T09:41:04.064Z,31.90
2019-04-14T09:43:33.330Z,29.60
2019-04-14T09:46:02.635Z,30.70
2019-04-14T09:48:31.886Z,31.07
2019-04-14T09:51:04.963Z,32.83
2019-04-14T09:53:32.169Z,30.33
2019-04-14T09:56:02.526Z,28.80
2019-04-14T09:58:31.792Z,27.57
2019-04-14T10:01:01.093Z,31.13
2019-04-14T10:03:30.432Z,32.10
2019-04-14T10:05:59.799Z,34.43
2019-04-14T10:08:29.145Z,29.90
2019-04-14T10:10:58.429Z,28.27
2019-04-14T10:13:27.705Z,28.33
2019-04-14T10:15:56.996Z,35.70
2019-04-14T10:18:26.280Z,28.90
2019-04-14T10:20:55.553Z,28.60
2019-04-14T10:23:25.814Z,27.20
2019-04-14T10:25:55.176Z,25.57
2019-04-14T10:28:24.453Z,25.07
2019-04-14T10:30:53.736Z,29.83
2019-04-14T10:33:23.009Z,26.67
2019-04-14T10:35:52.280Z,27.10
2019-04-14T10:38:21.576Z,29.37
2019-04-14T10:40:50.849Z,30.03
2019-04-14T10:43:21.108Z,24.03
2019-04-14T10:45:51.356Z,28.97
2019-04-14T10:48:20.642Z,25.87
2019-04-14T10:50:50.892Z,27.37
2019-04-14T10:53:20.186Z,25.90
2019-04-14T10:55:49.466Z,28.53
2019-04-14T10:58:18.757Z,23.03
2019-04-14T11:00:48.109Z,24.07
2019-04-14T11:03:17.408Z,29.13
2019-04-14T11:06:03.465Z,23.90
2019-04-14T11:08:32.773Z,25.90
2019-04-14T11:11:03.582Z,23.40
2019-04-14T11:13:32.884Z,26.93
2019-04-14T11:16:02.181Z,29.07
2019-04-14T11:18:31.465Z,26.50
2019-04-14T11:21:00.814Z,27.03
2019-04-14T11:23:30.088Z,21.63
2019-04-14T11:25:59.386Z,26.37
2019-04-14T11:28:28.692Z,24.90
2019-04-14T11:30:58.146Z,21.57
2019-04-14T11:33:45.665Z,24.80
2019-04-14T11:36:19.341Z,28.90
2019-04-14T11:38:56.065Z,25.73
2019-04-14T11:41:25.365Z,28.27
2019-04-14T11:43:54.709Z,27.33
2019-04-14T11:46:23.982Z,26.07
2019-04-14T11:48:53.327Z,26.00
2019-04-14T11:51:22.634Z,24.40
2019-04-14T11:53:51.908Z,24.70
2019-04-14T11:56:21.185Z,26.13
2019-04-14T11:58:50.469Z,26.63
2019-04-14T12:01:37.865Z,23.43
2019-04-14T12:04:14.891Z,27.93
2019-04-14T12:06:58.130Z,24.77
2019-04-14T12:09:32.020Z,23.37
2019-04-14T12:12:01.385Z,25.73
2019-04-14T12:14:30.685Z,26.83
2019-04-14T12:16:59.968Z,26.23
2019-04-14T12:19:29.276Z,27.97
2019-04-14T12:22:08.299Z,25.97
2019-04-14T12:24:29.878Z,26.40
2019-04-14T12:26:59.175Z,25.80
2019-04-14T12:29:30.473Z,24.67
2019-04-14T12:32:00.137Z,22.00
2019-04-14T12:34:29.485Z,23.10
2019-04-14T12:36:58.836Z,23.57
2019-04-14T12:39:28.209Z,22.93
2019-04-14T12:45:00.378Z,24.63
2019-04-14T12:47:39.804Z,24.70
2019-04-14T12:50:16.680Z,23.23
2019-04-14T12:52:45.977Z,23.67
2019-04-14T12:55:15.328Z,25.07
2019-04-14T12:57:49.029Z,20.87
2019-04-14T13:00:21.185Z,22.97
2019-04-14T13:02:52.107Z,27.90
2019-04-14T13:05:21.397Z,24.13
2019-04-14T13:07:50.683Z,26.30
2019-04-14T13:10:20.025Z,24.93
2019-04-14T13:12:49.316Z,25.60
2019-04-14T13:15:18.654Z,32.33
2019-04-14T13:17:48.028Z,23.13
2019-04-14T13:20:17.325Z,25.73
2019-04-14T13:22:46.638Z,25.30
2019-04-14T13:25:15.981Z,22.83
2019-04-14T13:27:45.409Z,21.93
2019-04-14T13:30:16.466Z,25.57
2019-04-14T13:32:45.749Z,25.67
2019-04-14T13:35:15.046Z,26.43
2019-04-14T13:37:44.320Z,28.40
2019-04-14T13:40:14.840Z,25.30
2019-04-14T13:42:44.111Z,23.60
2019-04-14T13:45:13.483Z,24.00
2019-04-14T13:47:42.762Z,26.13
2019-04-14T13:50:13.543Z,23.50
2019-04-14T13:52:46.961Z,20.83
2019-04-14T13:55:13.965Z,21.30
2019-04-14T13:57:43.325Z,24.97
2019-04-14T14:00:13.816Z,27.27
2019-04-14T14:02:43.553Z,23.37
2019-04-14T14:05:12.822Z,26.37
2019-04-14T14:07:42.099Z,24.63
2019-04-14T14:10:12.013Z,23.50
2019-04-14T14:12:42.947Z,24.60
2019-04-14T14:15:13.980Z,30.27
2019-04-14T14:17:44.895Z,28.70
2019-04-14T14:20:26.024Z,25.57
2019-04-14T14:23:12.209Z,22.27
2019-04-14T14:25:43.124Z,23.60
2019-04-14T14:28:12.410Z,23.97
2019-04-14T14:30:41.769Z,24.20
2019-04-14T14:33:11.048Z,23.40
2019-04-14T14:35:40.334Z,27.60
2019-04-14T14:38:09.616Z,23.93
2019-04-14T14:40:38.899Z,23.20
2019-04-14T14:43:08.185Z,24.80
2019-04-14T14:45:41.916Z,25.77
2019-04-14T14:48:18.742Z,24.27
2019-04-14T14:50:55.584Z,24.27
2019-04-14T14:53:24.934Z,27.30
2019-04-14T14:55:56.896Z,23.70
2019-04-14T14:58:26.172Z,24.37
2019-04-14T15:00:55.451Z,22.63
2019-04-14T15:03:24.749Z,24.47
2019-04-14T15:05:54.040Z,24.90
2019-04-14T15:08:23.322Z,26.40
2019-04-14T15:10:52.596Z,23.27
2019-04-14T15:13:22.045Z,23.33
2019-04-14T15:15:51.369Z,24.07
2019-04-14T15:18:20.617Z,21.87
2019-04-14T15:20:51.211Z,20.57
2019-04-14T15:23:25.376Z,24.17
2019-04-14T15:25:51.717Z,29.30
2019-04-14T15:28:21.005Z,26.87
2019-04-14T15:30:50.301Z,20.97
2019-04-14T15:33:19.573Z,28.83
2019-04-14T15:35:48.853Z,24.73
2019-04-14T15:38:18.137Z,26.27
2019-04-14T15:40:47.435Z,23.13
2019-04-14T15:43:16.712Z,21.87
2019-04-14T15:45:46.031Z,24.33
2019-04-14T15:48:15.353Z,25.33
2019-04-14T15:50:45.611Z,23.83
2019-04-14T15:53:14.893Z,23.17
2019-04-14T15:55:44.189Z,23.20
2019-04-14T15:58:31.366Z,28.27
2019-04-14T16:01:18.792Z,24.37
2019-04-14T16:03:49.716Z,29.10
2019-04-14T16:06:37.956Z,20.70
2019-04-14T16:09:09.915Z,27.70
2019-04-14T16:12:00.491Z,24.77
2019-04-14T16:14:31.415Z,24.23
2019-04-14T16:17:11.130Z,23.87
2019-04-14T16:19:42.123Z,26.47
2019-04-14T16:22:11.440Z,25.03
2019-04-14T16:24:40.745Z,20.60
2019-04-14T16:27:24.009Z,20.97
2019-04-14T16:30:06.862Z,21.43
2019-04-14T16:32:54.668Z,21.07
2019-04-14T16:35:28.266Z,19.53
2019-04-14T16:37:57.556Z,22.47
2019-04-14T16:40:26.868Z,23.67
2019-04-14T16:42:56.212Z,25.27
2019-04-14T16:45:25.645Z,23.20
2019-04-14T16:47:54.944Z,24.10
2019-04-14T16:50:24.224Z,24.17
2019-04-14T16:52:57.868Z,75.43
2019-04-14T16:55:31.244Z,24.00
2019-04-14T16:58:05.101Z,23.13
2019-04-14T17:00:37.233Z,23.77
2019-04-14T17:03:06.709Z,23.43
2019-04-14T17:05:38.894Z,27.30
2019-04-14T17:08:07.016Z,19.43
2019-04-14T17:10:36.312Z,27.37
2019-04-14T17:13:05.657Z,22.83
2019-04-14T17:15:36.574Z,21.53
2019-04-14T17:18:23.713Z,23.27
2019-04-14T17:21:12.632Z,22.97
2019-04-14T17:23:58.544Z,27.47
2019-04-14T17:26:29.478Z,26.30
2019-04-14T17:29:00.404Z,32.37
2019-04-14T17:31:37.325Z,23.33
2019-04-14T17:34:26.838Z,23.70
2019-04-14T17:37:03.692Z,21.37
2019-04-14T17:39:46.757Z,27.10
2019-04-14T17:42:18.748Z,25.07
2019-04-14T17:44:49.682Z,23.33
2019-04-14T17:47:37.134Z,23.40
2019-04-14T17:50:17.782Z,24.17
2019-04-14T17:53:12.149Z,27.93
2019-04-14T17:55:55.316Z,25.13
2019-04-14T17:58:26.242Z,25.83
2019-04-14T18:01:13.633Z,25.57
2019-04-14T18:03:44.552Z,24.33
2019-04-14T18:06:18.496Z,24.07
2019-04-14T18:09:05.406Z,24.53
2019-04-14T18:11:51.771Z,22.23
2019-04-14T18:14:25.373Z,23.90
2019-04-14T18:17:14.410Z,25.63
2019-04-14T18:20:03.398Z,27.20
2019-04-14T18:22:32.689Z,23.60
2019-04-14T18:25:02.080Z,21.73
2019-04-14T18:27:34.360Z,23.80
2019-04-14T18:30:09.500Z,23.80
2019-04-14T18:32:49.391Z,26.60
2019-04-14T18:35:20.312Z,25.40
2019-04-14T18:37:54.189Z,33.00
2019-04-14T18:40:28.003Z,25.87
2019-04-14T18:43:01.851Z,23.90
2019-04-14T18:45:38.746Z,25.63
2019-04-14T18:48:25.855Z,25.87
2019-04-14T18:50:56.786Z,27.67
2019-04-14T18:53:40.873Z,26.10
2019-04-14T18:56:28.265Z,24.03
2019-04-14T18:59:02.146Z,29.73
2019-04-14T19:01:33.071Z,25.47
2019-04-14T19:04:02.586Z,25.83
2019-04-14T19:06:32.873Z,27.37
2019-04-14T19:09:02.155Z,23.87
2019-04-14T19:11:34.697Z,26.77
2019-04-14T19:14:05.338Z,27.00
2019-04-14T19:16:39.908Z,27.90
2019-04-14T19:19:09.021Z,28.37
2019-04-14T19:21:38.312Z,29.60
2019-04-14T19:24:07.625Z,28.80
2019-04-14T19:26:36.958Z,23.93
2019-04-14T19:29:06.229Z,24.23
2019-04-14T19:31:35.513Z,27.37
2019-04-14T19:34:04.877Z,28.97
2019-04-14T19:36:34.200Z,27.83
2019-04-14T19:39:06.899Z,24.77
2019-04-14T19:41:36.756Z,25.87
2019-04-14T19:44:06.028Z,23.70
2019-04-14T19:46:35.318Z,21.23
2019-04-14T19:49:04.615Z,19.47
2019-04-14T19:51:33.888Z,24.53
2019-04-14T19:54:03.164Z,18.87
2019-04-14T19:56:32.752Z,24.00
2019-04-14T19:59:03.166Z,21.90
2019-04-14T20:01:32.464Z,20.33
2019-04-14T20:04:01.804Z,22.73
2019-04-14T20:06:31.108Z,19.67
2019-04-14T20:09:01.447Z,19.73
2019-04-14T20:11:32.418Z,19.60
2019-04-14T20:14:01.740Z,20.03
2019-04-14T20:16:49.111Z,18.23
2019-04-14T20:19:31.965Z,21.87
2019-04-14T20:22:11.871Z,19.03
2019-04-14T20:24:43.779Z,19.43
2019-04-14T20:27:14.693Z,20.57
2019-04-14T20:29:48.322Z,17.07
2019-04-14T20:32:20.313Z,19.37
2019-04-14T20:34:49.656Z,17.23
2019-04-14T20:37:19.009Z,17.13
2019-04-14T20:39:48.315Z,21.40
2019-04-14T20:42:17.628Z,18.33
2019-04-14T20:44:46.906Z,18.13
2019-04-14T20:47:16.268Z,18.90
2019-04-14T20:49:45.562Z,22.53
2019-04-14T20:52:15.021Z,22.50
2019-04-14T20:54:44.288Z,21.00
2019-04-14T20:57:14.624Z,20.83
2019-04-14T20:59:43.909Z,24.33
2019-04-14T21:02:24.005Z,24.77
2019-04-14T21:05:11.427Z,25.47
2019-04-14T21:07:58.726Z,22.47
2019-04-14T21:10:29.640Z,23.87
2019-04-14T21:13:15.579Z,25.57
2019-04-14T21:15:46.503Z,25.13
2019-04-14T21:18:23.314Z,23.17
2019-04-14T21:20:56.923Z,26.10
2019-04-14T21:23:33.962Z,27.90
2019-04-14T21:26:04.917Z,23.03
2019-04-14T21:28:52.036Z,22.83
2019-04-14T21:31:37.959Z,24.93
2019-04-14T21:34:25.100Z,21.00
2019-04-14T21:36:56.097Z,23.97
2019-04-14T21:39:33.213Z,24.03
2019-04-14T21:42:02.506Z,21.57
2019-04-14T21:44:31.793Z,19.87
2019-04-14T21:47:01.092Z,21.90
2019-04-14T21:49:30.361Z,22.30
2019-04-14T21:52:07.085Z,19.67
2019-04-14T21:54:36.364Z,20.27
2019-04-14T21:57:13.237Z,20.37
2019-04-14T22:00:00.433Z,24.77
2019-04-14T22:02:31.442Z,19.60
2019-04-14T22:05:02.362Z,23.67
2019-04-14T22:07:33.280Z,22.30
2019-04-14T22:10:06.529Z,20.47
2019-04-14T22:12:35.792Z,22.50
2019-04-14T22:15:06.296Z,23.03
2019-04-14T22:17:35.572Z,20.07
2019-04-14T22:20:05.872Z,19.97
2019-04-14T22:22:35.162Z,24.27
2019-04-14T22:25:06.573Z,27.67
2019-04-14T22:27:35.867Z,24.33
2019-04-14T22:30:07.903Z,23.73
2019-04-14T22:32:38.240Z,27.67
2019-04-14T22:35:07.520Z,31.40
2019-04-14T22:37:36.804Z,29.47
2019-04-14T22:40:06.615Z,38.63
2019-04-14T22:42:35.903Z,31.33
2019-04-14T22:45:06.664Z,24.50
2019-04-14T22:47:35.999Z,25.00
2019-04-14T22:50:06.088Z,27.37
2019-04-14T22:52:35.368Z,26.07
2019-04-14T22:55:06.665Z,25.30
2019-04-14T22:57:35.943Z,25.70
2019-04-14T23:00:08.665Z,23.33
2019-04-14T23:02:56.568Z,26.53
2019-04-14T23:05:45.571Z,23.67
2019-04-14T23:08:16.501Z,29.33
2019-04-14T23:11:02.348Z,26.80
2019-04-14T23:13:45.430Z,26.83
2019-04-14T23:16:19.544Z,24.07
2019-04-14T23:18:56.313Z,24.40
2019-04-14T23:21:27.238Z,21.77
2019-04-14T23:24:13.156Z,23.10
2019-04-14T23:26:52.254Z,25.03
2019-04-14T23:29:13.421Z,20.63
2019-04-14T23:31:42.696Z,17.77
2019-04-14T23:34:11.980Z,21.93
2019-04-14T23:36:41.251Z,19.93
2019-04-14T23:39:12.005Z,21.63
2019-04-14T23:41:41.269Z,18.27
2019-04-14T23:44:10.614Z,17.90
2019-04-14T23:46:39.915Z,20.30
2019-04-14T23:49:09.197Z,21.77
2019-04-14T23:51:38.471Z,19.30
2019-04-14T23:54:07.809Z,20.30
2019-04-14T23:56:37.087Z,20.47
2019-04-14T23:59:06.378Z,19.27
